Time;durP1;ratioP1;P1;durP2;ratioP2;P2;SDS_P1;SDS_P2;PMS_P1;PMS_P2;Temp;Humidity;BMP_temperature;BMP_pressure;BME280_temperature;BME280_humidity;BME280_pressure;Samples;Min_cycle;Max_cycle;Signal;HPM_P1;HPM_P2
2021/12/26 00:00:23;;;;;;;;;34.00;27.75;;;;;11.59;70.69;99907.38;4980286;28;45465;-52
2021/12/26 00:02:48;;;;;;;;;35.25;30.75;;;;;11.59;70.71;99915.28;4980168;28;46126;-49
2021/12/26 00:05:15;;;;;;;;;38.75;30.25;;;;;11.59;70.63;99907.38;4980035;28;45247;-51
2021/12/26 00:07:40;;;;;;;;;34.00;31.00;;;;;11.61;70.82;99908.19;4980216;28;45326;-49
2021/12/26 00:10:09;;;;;;;;;30.50;27.25;;;;;11.61;70.67;99905.56;4980065;28;45185;-52
2021/12/26 00:12:35;;;;;;;;;28.75;26.00;;;;;11.61;70.58;99900.31;4980102;28;45389;-47
2021/12/26 00:15:01;;;;;;;;;29.50;26.50;;;;;11.60;70.58;99901.22;4980285;28;45360;-49
2021/12/26 00:17:26;;;;;;;;;27.75;27.50;;;;;11.62;70.86;99903.78;4980212;28;45339;-49
2021/12/26 00:19:51;;;;;;;;;28.25;25.50;;;;;11.61;70.71;99897.69;4980145;28;45426;-51
2021/12/26 00:22:17;;;;;;;;;32.00;27.25;;;;;11.63;70.73;99898.47;4979914;28;45272;-50
2021/12/26 00:24:42;;;;;;;;;26.50;23.00;;;;;11.63;70.73;99897.63;4962442;28;45303;-52
2021/12/26 00:27:08;;;;;;;;;31.25;29.25;;;;;11.61;70.58;99892.41;4980126;28;45295;-51
2021/12/26 00:29:33;;;;;;;;;29.25;25.00;;;;;11.63;70.74;99895.84;4978242;28;45381;-51
2021/12/26 00:31:59;;;;;;;;;33.00;27.50;;;;;11.59;70.70;99888.97;4962204;28;45244;-50
2021/12/26 00:34:24;;;;;;;;;29.25;25.75;;;;;11.64;70.54;99894.09;4980041;28;45306;-49
2021/12/26 00:36:50;;;;;;;;;36.75;32.00;;;;;11.63;70.67;99885.31;4971007;28;45399;-47
2021/12/26 00:39:16;;;;;;;;;34.25;28.25;;;;;11.63;70.39;99898.47;4979949;28;45433;-52
2021/12/26 00:41:42;;;;;;;;;30.50;29.25;;;;;11.64;70.72;99889.66;4979578;28;46227;-51
2021/12/26 00:44:08;;;;;;;;;34.00;32.25;;;;;11.64;70.41;99886.19;4979904;28;45232;-48
2021/12/26 00:46:34;;;;;;;;;28.75;24.75;;;;;11.64;70.67;99884.41;4979857;28;45183;-51
2021/12/26 00:49:00;;;;;;;;;36.25;30.50;;;;;11.62;70.46;99875.72;4980117;28;45425;-50
2021/12/26 00:51:25;;;;;;;;;23.75;22.75;;;;;11.62;70.57;99875.72;4982792;28;45533;-51
2021/12/26 00:53:50;;;;;;;;;25.25;24.50;;;;;11.60;70.57;99872.25;4983136;28;45346;-47
2021/12/26 00:56:17;;;;;;;;;25.50;24.50;;;;;11.58;70.74;99871.44;4983164;28;45326;-52
2021/12/26 00:58:43;;;;;;;;;25.50;23.75;;;;;11.59;70.44;99877.59;4965574;28;45455;-52
2021/12/26 01:01:08;;;;;;;;;26.25;26.00;;;;;11.57;70.66;99882.88;4982819;28;46096;-48
2021/12/26 01:03:34;;;;;;;;;35.50;29.00;;;;;11.53;70.73;99887.41;4983045;28;45333;-50
2021/12/26 01:06:00;;;;;;;;;35.00;30.25;;;;;11.54;70.82;99885.63;4982792;28;45426;-50
2021/12/26 01:08:30;;;;;;;;;31.25;29.00;;;;;11.54;70.64;99894.34;4983005;28;45256;-50
2021/12/26 01:11:01;;;;;;;;;33.75;30.25;;;;;11.54;70.88;99890.88;4982556;28;46974;-50
2021/12/26 01:13:36;;;;;;;;;25.00;25.00;;;;;11.51;70.62;99891.84;4982950;28;45236;-49
2021/12/26 01:16:06;;;;;;;;;35.25;29.75;;;;;11.51;70.70;99886.56;4982709;28;45236;-49
2021/12/26 01:18:35;;;;;;;;;29.50;23.75;;;;;11.51;70.99;99893.63;4982676;28;45445;-48
2021/12/26 01:21:24;;;;;;;;;39.00;32.00;;;;;11.50;70.50;99884.84;4982153;28;46336;-48
2021/12/26 01:23:54;;;;;;;;;31.25;27.25;;;;;11.48;70.57;99894.56;4982367;28;45219;-48
2021/12/26 01:26:19;;;;;;;;;34.25;30.50;;;;;11.49;70.69;99890.16;4965524;28;45376;-50
2021/12/26 01:28:45;;;;;;;;;31.25;25.00;;;;;11.49;70.77;99893.66;4982709;28;45232;-51
2021/12/26 01:31:11;;;;;;;;;32.75;26.75;;;;;11.50;70.31;99886.63;4967541;28;46108;-51
2021/12/26 01:33:37;;;;;;;;;28.00;26.75;;;;;11.48;70.74;99897.22;4977865;28;45469;-46
2021/12/26 01:36:04;;;;;;;;;32.00;28.75;;;;;11.46;70.59;99891.13;4978516;28;45262;-50
2021/12/26 01:38:29;;;;;;;;;31.75;27.25;;;;;11.47;70.55;99889.34;4977791;28;45509;-50
2021/12/26 01:40:57;;;;;;;;;28.75;26.75;;;;;11.46;70.63;99885.88;4982282;28;45393;-47
2021/12/26 01:43:30;;;;;;;;;32.25;24.25;;;;;11.48;70.57;99883.19;4982231;28;45343;-50
2021/12/26 01:45:55;;;;;;;;;39.75;31.00;;;;;11.46;70.61;99888.50;4982490;28;45377;-50
2021/12/26 01:48:21;;;;;;;;;28.50;24.75;;;;;11.43;70.59;99885.94;4982060;28;45481;-48
2021/12/26 01:50:49;;;;;;;;;31.25;28.00;;;;;11.46;70.67;99879.72;4981952;28;46909;-49
2021/12/26 01:53:15;;;;;;;;;33.25;31.00;;;;;11.46;70.68;99877.97;4982100;28;45372;-50
2021/12/26 01:55:44;;;;;;;;;26.50;25.00;;;;;11.46;70.53;99871.81;4982213;28;45313;-48
2021/12/26 01:58:19;;;;;;;;;28.25;25.50;;;;;11.46;70.50;99874.47;4981972;28;45314;-48
2021/12/26 02:00:51;;;;;;;;;26.25;26.00;;;;;11.46;70.57;99880.59;4981927;28;46336;-47
2021/12/26 02:03:16;;;;;;;;;22.25;20.75;;;;;11.45;70.59;99884.13;4964438;28;45430;-46
2021/12/26 02:05:42;;;;;;;;;32.00;29.50;;;;;11.44;70.52;99873.66;4982039;28;45323;-50
2021/12/26 02:08:07;;;;;;;;;30.75;25.00;;;;;11.45;70.51;99880.66;4981791;28;45419;-48
2021/12/26 02:10:33;;;;;;;;;30.75;25.50;;;;;11.46;70.65;99875.34;4981938;28;45436;-49
2021/12/26 02:12:59;;;;;;;;;30.50;25.75;;;;;11.46;70.65;99887.63;4981831;28;45302;-50
2021/12/26 02:15:25;;;;;;;;;29.75;28.50;;;;;11.44;70.43;99884.19;4964521;28;45433;-50
2021/12/26 02:17:51;;;;;;;;;31.50;26.25;;;;;11.43;70.56;99882.47;4981703;28;45545;-50
2021/12/26 02:20:27;;;;;;;;;33.25;29.75;;;;;11.43;70.70;99900.88;4981634;28;45932;-48
2021/12/26 02:22:58;;;;;;;;;33.00;26.00;;;;;11.40;70.61;99886.06;4964391;28;45382;-51
2021/12/26 02:27:52;;;;;;;;;31.25;27.00;;;;;11.38;70.69;99891.38;4981675;28;45530;-46
2021/12/26 02:30:18;;;;;;;;;30.25;29.50;;;;;11.36;70.75;99887.06;4973407;28;45309;-52
2021/12/26 02:32:48;;;;;;;;;28.25;25.00;;;;;11.37;70.65;99891.38;4970177;28;45360;-52
2021/12/26 02:35:15;;;;;;;;;32.75;27.25;;;;;11.33;70.65;99887.13;4981489;28;45255;-46
2021/12/26 02:37:40;;;;;;;;;28.50;26.25;;;;;11.32;70.82;99883.66;4972822;28;45456;-46
2021/12/26 02:40:07;;;;;;;;;35.25;30.00;;;;;11.32;70.71;99883.66;4981121;28;45509;-46
2021/12/26 02:42:32;;;;;;;;;38.00;31.75;;;;;11.30;70.74;99887.25;4963978;28;45333;-49
2021/12/26 02:44:58;;;;;;;;;33.75;30.00;;;;;11.27;70.73;99888.22;4981478;28;45342;-48
2021/12/26 02:47:32;;;;;;;;;30.00;25.25;;;;;11.24;70.92;99879.53;4981390;28;45244;-50
2021/12/26 02:50:00;;;;;;;;;33.75;29.00;;;;;11.26;70.82;99877.72;4980906;28;45438;-50
2021/12/26 02:52:26;;;;;;;;;30.75;26.00;;;;;11.26;70.77;99875.97;4981343;28;45285;-51
2021/12/26 02:54:51;;;;;;;;;34.75;31.50;;;;;11.25;70.75;99876.00;4981154;28;45326;-51
2021/12/26 02:57:16;;;;;;;;;37.50;29.75;;;;;11.21;70.65;99862.94;4963789;28;45193;-48
2021/12/26 02:59:42;;;;;;;;;28.00;24.75;;;;;11.23;70.66;99873.41;4981025;28;45238;-50
2021/12/26 03:02:07;;;;;;;;;34.75;30.00;;;;;11.25;70.77;99868.13;4981402;28;45223;-51
2021/12/26 03:04:32;;;;;;;;;29.75;27.50;;;;;11.24;70.69;99869.88;4963512;28;45281;-49
2021/12/26 03:07:02;;;;;;;;;30.50;29.25;;;;;11.24;70.71;99869.88;4981146;28;45527;-51
2021/12/26 03:09:35;;;;;;;;;33.25;30.50;;;;;11.25;70.70;99868.13;4980672;28;47166;-47
2021/12/26 03:12:00;;;;;;;;;33.00;29.25;;;;;11.25;70.81;99874.22;4980449;28;45454;-49
2021/12/26 03:14:26;;;;;;;;;36.50;32.50;;;;;11.21;70.59;99870.84;4980913;28;45346;-50
2021/12/26 03:16:51;;;;;;;;;31.75;30.00;;;;;11.24;70.72;99869.03;4981159;28;45330;-48
2021/12/26 03:19:18;;;;;;;;;38.00;32.00;;;;;11.23;70.73;99868.16;4963308;28;46139;-50
2021/12/26 03:21:44;;;;;;;;;31.25;29.50;;;;;11.24;70.61;99874.28;4980589;28;45378;-49
2021/12/26 03:24:09;;;;;;;;;27.75;27.25;;;;;11.23;70.73;99868.16;4963332;28;45314;-50
2021/12/26 03:26:34;;;;;;;;;34.25;29.75;;;;;11.22;70.66;99867.31;4981102;28;45263;-50
2021/12/26 03:29:00;;;;;;;;;34.00;29.25;;;;;11.22;70.67;99872.56;4980524;28;46112;-47
2021/12/26 03:31:25;;;;;;;;;39.50;31.00;;;;;11.20;70.66;99858.59;4965060;28;45425;-51
2021/12/26 03:33:50;;;;;;;;;37.75;31.50;;;;;11.25;70.82;99865.50;4978144;28;45173;-49
2021/12/26 03:36:16;;;;;;;;;36.25;30.50;;;;;11.25;70.72;99874.22;4974686;28;45543;-51
2021/12/26 03:38:42;;;;;;;;;29.25;26.25;;;;;11.24;70.71;99875.13;4977924;28;45439;-49
2021/12/26 03:41:07;;;;;;;;;32.25;28.00;;;;;11.25;70.74;99870.75;4980681;28;45164;-49
2021/12/26 03:43:33;;;;;;;;;35.00;31.50;;;;;11.21;70.74;99865.56;4963049;28;45314;-49
2021/12/26 03:45:58;;;;;;;;;31.00;30.25;;;;;11.25;70.64;99874.22;4980685;28;45496;-50
2021/12/26 03:48:26;;;;;;;;;33.00;31.00;;;;;11.26;70.63;99873.34;4980405;28;46184;-49
2021/12/26 03:50:53;;;;;;;;;29.75;28.50;;;;;11.26;70.62;99865.44;4980263;28;45322;-49
2021/12/26 03:53:18;;;;;;;;;29.75;28.75;;;;;11.27;70.63;99869.78;4980379;28;45323;-48
2021/12/26 03:55:44;;;;;;;;;26.75;24.25;;;;;11.26;70.56;99861.94;4980343;28;45264;-50
2021/12/26 03:58:10;;;;;;;;;32.00;26.75;;;;;11.27;70.73;99869.78;4962771;28;48074;-48
2021/12/26 04:00:36;;;;;;;;;31.00;28.50;;;;;11.27;70.51;99861.03;4962916;28;45321;-47
2021/12/26 04:03:02;;;;;;;;;29.25;26.00;;;;;11.25;70.61;99863.72;4980509;28;45280;-50
2021/12/26 04:05:27;;;;;;;;;32.50;29.50;;;;;11.25;70.51;99850.56;4980080;28;45214;-49
2021/12/26 04:07:53;;;;;;;;;34.00;29.25;;;;;11.19;70.78;99842.88;4980154;28;45279;-47
2021/12/26 04:10:20;;;;;;;;;29.00;25.50;;;;;11.25;70.67;99855.81;4980186;28;45231;-48
2021/12/26 04:12:48;;;;;;;;;30.00;25.75;;;;;11.28;70.68;99849.59;4980381;28;45405;-47
2021/12/26 04:15:19;;;;;;;;;29.00;25.00;;;;;11.26;70.50;99851.41;4980153;28;45562;-46
2021/12/26 04:17:45;;;;;;;;;31.00;28.25;;;;;11.25;70.79;99837.41;4979905;28;45196;-48
2021/12/26 04:20:12;;;;;;;;;28.75;27.75;;;;;11.27;70.69;99840.00;4962449;28;45393;-48
2021/12/26 04:22:37;;;;;;;;;31.00;27.25;;;;;11.28;70.78;99836.47;4980206;28;45272;-46
2021/12/26 04:25:04;;;;;;;;;30.50;28.00;;;;;11.28;70.67;99834.69;4981944;28;45362;-50
2021/12/26 04:27:30;;;;;;;;;39.00;33.25;;;;;11.29;70.63;99846.06;4983207;28;46054;-46
2021/12/26 04:29:55;;;;;;;;;32.75;29.00;;;;;11.28;70.54;99839.97;4978771;28;45203;-46
2021/12/26 04:32:21;;;;;;;;;31.00;29.50;;;;;11.29;70.54;99840.81;4969212;28;45391;-48
2021/12/26 04:34:47;;;;;;;;;32.00;29.25;;;;;11.30;70.60;99842.53;4983479;28;45326;-49
2021/12/26 04:37:13;;;;;;;;;32.50;30.50;;;;;11.29;70.73;99839.03;4974533;28;46355;-51
2021/12/26 04:39:38;;;;;;;;;31.50;29.25;;;;;11.29;70.59;99836.41;4983261;28;45196;-48
2021/12/26 04:42:05;;;;;;;;;28.50;24.75;;;;;11.30;70.72;99840.75;4983357;28;45358;-48
2021/12/26 04:44:30;;;;;;;;;36.25;32.50;;;;;11.30;70.57;99838.13;4983309;28;45338;-50
2021/12/26 04:46:56;;;;;;;;;37.00;30.25;;;;;11.30;70.40;99832.88;4982878;28;46184;-47
2021/12/26 04:49:22;;;;;;;;;30.25;28.00;;;;;11.30;70.66;99832.88;4965467;28;45962;-46
2021/12/26 04:51:47;;;;;;;;;34.75;33.50;;;;;11.32;70.70;99830.19;4983092;28;45446;-51
2021/12/26 04:54:13;;;;;;;;;29.25;27.25;;;;;11.31;70.78;99831.97;4965570;28;45368;-49
2021/12/26 04:56:38;;;;;;;;;30.25;30.00;;;;;11.32;70.92;99831.06;4982904;28;46249;-48
2021/12/26 04:59:04;;;;;;;;;35.00;31.50;;;;;11.32;70.57;99820.53;4983150;28;45382;-46
2021/12/26 05:01:30;;;;;;;;;27.00;25.50;;;;;11.32;70.73;99820.53;4983064;28;45425;-48
2021/12/26 05:03:56;;;;;;;;;29.00;26.00;;;;;11.32;70.53;99822.28;4983031;28;45356;-48
2021/12/26 05:06:21;;;;;;;;;36.00;29.25;;;;;11.32;70.47;99819.66;4964930;28;46106;-47
2021/12/26 05:08:47;;;;;;;;;33.50;31.00;;;;;11.32;70.66;99824.91;4982989;28;45360;-50
2021/12/26 05:11:12;;;;;;;;;30.75;27.75;;;;;11.31;70.54;99816.19;4982942;28;45393;-49
2021/12/26 05:13:37;;;;;;;;;33.00;30.25;;;;;11.30;70.73;99822.34;4983049;28;45422;-51
2021/12/26 05:16:03;;;;;;;;;38.75;32.00;;;;;11.30;70.69;99817.09;4982743;28;45365;-52
2021/12/26 05:18:29;;;;;;;;;36.00;29.50;;;;;11.29;70.71;99820.63;4982796;28;45204;-50
2021/12/26 05:20:56;;;;;;;;;39.25;34.00;;;;;11.30;70.50;99817.09;4982528;28;45472;-48
2021/12/26 05:23:22;;;;;;;;;34.00;32.00;;;;;11.26;70.52;99810.22;4982741;28;45481;-47
2021/12/26 05:25:47;;;;;;;;;32.00;28.75;;;;;11.30;70.57;99813.59;4982227;28;45343;-49
2021/12/26 05:28:13;;;;;;;;;32.00;27.50;;;;;11.28;70.57;99808.41;4982632;28;45318;-49
2021/12/26 05:30:38;;;;;;;;;30.25;28.75;;;;;11.29;70.63;99809.25;4972308;28;45370;-51
2021/12/26 05:33:03;;;;;;;;;33.00;29.75;;;;;11.27;70.69;99809.31;4956312;28;45267;-51
2021/12/26 05:35:30;;;;;;;;;28.50;27.75;;;;;11.27;70.77;99808.44;4981700;28;46311;-50
2021/12/26 05:37:56;;;;;;;;;26.25;25.50;;;;;11.27;70.76;99813.69;4974256;28;45341;-49
2021/12/26 05:40:21;;;;;;;;;30.75;27.50;;;;;11.25;70.74;99797.13;4982282;28;45442;-47
2021/12/26 05:42:46;;;;;;;;;29.50;28.00;;;;;11.26;70.68;99797.06;4982530;28;45471;-51
2021/12/26 05:45:13;;;;;;;;;27.50;25.75;;;;;11.26;70.55;99797.06;4982250;28;46283;-49
2021/12/26 05:47:39;;;;;;;;;28.00;24.50;;;;;11.27;70.76;99795.28;4982324;28;45224;-51
2021/12/26 05:50:06;;;;;;;;;36.00;30.75;;;;;11.26;70.71;99790.91;4982167;28;45394;-51
2021/12/26 05:52:31;;;;;;;;;23.25;20.50;;;;;11.26;70.72;99797.06;4964711;28;45468;-50
2021/12/26 05:54:57;;;;;;;;;22.25;20.50;;;;;11.25;70.48;99794.50;4981820;28;46176;-50
2021/12/26 05:57:23;;;;;;;;;21.50;20.00;;;;;11.26;70.70;99804.94;4982261;28;45345;-50
2021/12/26 05:59:49;;;;;;;;;18.75;16.25;;;;;11.22;70.63;99798.06;4982286;28;45262;-52
2021/12/26 06:02:14;;;;;;;;;21.00;18.00;;;;;11.24;70.70;99801.50;4982174;28;45323;-52
2021/12/26 06:04:40;;;;;;;;;15.50;14.75;;;;;11.24;71.00;99805.91;4964259;28;46217;-52
2021/12/26 06:07:06;;;;;;;;;15.50;15.50;;;;;11.22;70.75;99803.34;4964646;28;45341;-48
2021/12/26 06:09:32;;;;;;;;;14.50;13.00;;;;;11.22;70.86;99804.19;4981762;28;45230;-47
2021/12/26 06:11:57;;;;;;;;;17.50;16.75;;;;;11.22;70.84;99800.72;4964509;28;45239;-49
2021/12/26 06:14:23;;;;;;;;;16.75;14.25;;;;;11.22;70.78;99805.97;4964257;28;46183;-48
2021/12/26 06:16:48;;;;;;;;;19.50;14.50;;;;;11.21;70.76;99801.59;4981961;28;45220;-51
2021/12/26 06:19:14;;;;;;;;;15.75;15.50;;;;;11.24;70.71;99805.91;4981795;28;45364;-51
2021/12/26 06:21:39;;;;;;;;;16.75;16.00;;;;;11.22;70.91;99800.72;4981842;28;45394;-50
2021/12/26 06:24:05;;;;;;;;;16.00;14.75;;;;;11.24;70.88;99798.03;4963986;28;47165;-54
2021/12/26 06:26:32;;;;;;;;;19.25;15.25;;;;;11.24;70.68;99804.13;4981983;28;45323;-51
2021/12/26 06:28:57;;;;;;;;;15.75;14.25;;;;;11.24;70.86;99801.50;4981526;28;45316;-50
2021/12/26 06:31:23;;;;;;;;;18.50;16.50;;;;;11.23;70.80;99802.41;4965509;28;45304;-46
2021/12/26 06:33:48;;;;;;;;;18.00;14.50;;;;;11.23;70.74;99799.78;4978515;28;45756;-49
2021/12/26 06:36:16;;;;;;;;;18.00;14.50;;;;;11.25;70.80;99802.38;4975953;28;45332;-50
2021/12/26 06:38:42;;;;;;;;;20.00;16.00;;;;;11.24;70.84;99798.03;4961090;28;45283;-48
2021/12/26 06:41:08;;;;;;;;;15.50;15.50;;;;;11.23;70.83;99794.50;4981619;28;45324;-48
2021/12/26 06:43:37;;;;;;;;;19.00;17.25;;;;;11.23;70.93;99794.50;4981243;28;46212;-50
2021/12/26 06:46:04;;;;;;;;;16.50;14.75;;;;;11.24;70.86;99792.75;4964004;28;45433;-49
2021/12/26 06:48:29;;;;;;;;;18.00;16.25;;;;;11.20;70.77;99787.59;4980479;28;45399;-50
2021/12/26 06:50:55;;;;;;;;;18.75;17.00;;;;;11.19;71.12;99796.41;4981059;28;45382;-50
2021/12/26 06:53:21;;;;;;;;;17.50;14.75;;;;;11.20;71.10;99792.84;4981132;28;46306;-51
2021/12/26 06:55:46;;;;;;;;;19.50;17.50;;;;;11.21;70.94;99796.34;4981389;28;45291;-50
2021/12/26 06:58:13;;;;;;;;;18.25;15.25;;;;;11.22;70.90;99798.06;4981246;28;45234;-48
2021/12/26 07:00:39;;;;;;;;;17.00;13.75;;;;;11.21;70.85;99791.09;4963863;28;45449;-50
2021/12/26 07:03:04;;;;;;;;;14.25;13.50;;;;;11.19;71.15;99790.25;4980941;28;45228;-49
2021/12/26 07:05:30;;;;;;;;;20.00;18.00;;;;;11.17;71.02;99794.69;4981041;28;45275;-49
2021/12/26 07:07:55;;;;;;;;;17.25;16.00;;;;;11.18;71.21;99791.16;4981130;28;45342;-51
2021/12/26 07:10:21;;;;;;;;;20.25;19.00;;;;;11.16;71.12;99793.00;4980991;28;45389;-51
2021/12/26 07:12:47;;;;;;;;;18.00;15.25;;;;;11.18;71.26;99797.31;4980974;28;46227;-45
2021/12/26 07:15:13;;;;;;;;;14.25;14.00;;;;;11.16;71.17;99793.84;4981122;28;45310;-49
2021/12/26 07:17:40;;;;;;;;;18.25;16.00;;;;;11.16;71.32;99793.00;4981032;28;45264;-48
2021/12/26 07:20:07;;;;;;;;;22.50;18.00;;;;;11.15;71.46;99791.28;4980625;28;45925;-48
2021/12/26 07:22:32;;;;;;;;;18.00;18.00;;;;;11.15;71.35;99797.38;4980656;28;46214;-49
2021/12/26 07:24:58;;;;;;;;;16.75;14.75;;;;;11.15;71.16;99799.16;4980757;28;45247;-50
2021/12/26 07:27:23;;;;;;;;;16.25;12.00;;;;;11.17;71.26;99799.97;4981129;28;45461;-52
2021/12/26 07:29:49;;;;;;;;;18.25;17.50;;;;;11.17;71.24;99799.97;4976845;28;45485;-50
2021/12/26 07:32:14;;;;;;;;;19.00;15.75;;;;;11.17;71.29;99807.84;4965168;28;45491;-46
2021/12/26 07:34:40;;;;;;;;;17.25;15.75;;;;;11.16;71.25;99806.16;4980583;28;45245;-47
2021/12/26 07:37:07;;;;;;;;;15.50;13.75;;;;;11.21;71.22;99812.13;4972431;28;45519;-46
2021/12/26 07:39:32;;;;;;;;;22.75;15.75;;;;;11.21;71.09;99817.38;4980525;28;45484;-52
2021/12/26 07:41:58;;;;;;;;;19.00;15.50;;;;;11.23;71.32;99818.19;4976366;28;45340;-47
2021/12/26 07:44:23;;;;;;;;;19.50;17.75;;;;;11.24;71.12;99813.78;4971952;28;45248;-51
2021/12/26 07:46:49;;;;;;;;;18.25;16.50;;;;;11.25;71.21;99819.00;4980710;28;45244;-48
2021/12/26 07:49:16;;;;;;;;;20.25;16.50;;;;;11.24;71.27;99812.00;4980380;28;45487;-48
2021/12/26 07:51:43;;;;;;;;;19.50;17.75;;;;;11.25;71.25;99811.13;4980321;28;45994;-49
2021/12/26 07:54:08;;;;;;;;;22.75;19.75;;;;;11.27;71.28;99811.94;4980360;28;45347;-51
2021/12/26 07:56:34;;;;;;;;;21.00;18.50;;;;;11.28;71.47;99812.78;4980332;28;45222;-49
2021/12/26 07:58:59;;;;;;;;;20.50;18.00;;;;;11.28;71.27;99812.78;4980293;28;45476;-49
2021/12/26 08:01:28;;;;;;;;;20.50;19.00;;;;;11.30;71.75;99817.09;4967225;28;45303;-48
2021/12/26 08:03:54;;;;;;;;;21.50;20.25;;;;;11.28;71.44;99818.91;4980431;28;45338;-47
2021/12/26 08:06:20;;;;;;;;;20.50;18.00;;;;;11.32;71.46;99823.16;4980103;28;45256;-50
2021/12/26 08:08:47;;;;;;;;;20.00;18.75;;;;;11.32;71.47;99822.28;4980201;28;45456;-52
2021/12/26 08:11:13;;;;;;;;;24.75;22.25;;;;;11.35;71.60;99822.22;4962532;28;45808;-52
2021/12/26 08:13:38;;;;;;;;;19.00;17.25;;;;;11.37;71.62;99825.63;4962762;28;45180;-50
2021/12/26 08:16:04;;;;;;;;;15.00;14.00;;;;;11.33;71.51;99817.00;4962862;28;45742;-52
2021/12/26 08:18:30;;;;;;;;;23.50;19.00;;;;;11.37;71.57;99826.50;4963054;28;45397;-51
2021/12/26 08:20:55;;;;;;;;;20.75;17.00;;;;;11.34;71.51;99821.31;4979864;28;46283;-49
2021/12/26 08:23:20;;;;;;;;;20.75;17.50;;;;;11.37;71.61;99823.88;4980329;28;45183;-47
2021/12/26 08:25:46;;;;;;;;;20.50;15.25;;;;;11.38;71.53;99829.97;4980103;28;45274;-51
2021/12/26 08:28:14;;;;;;;;;18.50;14.75;;;;;11.37;71.81;99829.13;4980070;28;45563;-50
2021/12/26 08:30:40;;;;;;;;;18.00;17.00;;;;;11.37;71.82;99825.63;4969336;28;46074;-49
2021/12/26 08:33:07;;;;;;;;;20.75;17.25;;;;;11.38;71.97;99829.97;4971558;28;45295;-49
2021/12/26 08:35:34;;;;;;;;;18.75;16.25;;;;;11.35;72.09;99828.31;4962476;28;45291;-49
2021/12/26 08:38:00;;;;;;;;;17.75;15.75;;;;;11.37;71.94;99831.78;4964103;28;45456;-49
2021/12/26 08:40:25;;;;;;;;;16.50;14.50;;;;;11.41;71.96;99840.44;4979397;28;45239;-50
2021/12/26 08:42:50;;;;;;;;;20.75;15.25;;;;;11.42;71.92;99842.16;4980158;28;45521;-50
2021/12/26 08:45:16;;;;;;;;;22.25;18.50;;;;;11.44;72.02;99839.47;4979904;28;45319;-50
2021/12/26 08:47:41;;;;;;;;;18.50;16.75;;;;;11.44;72.08;99842.09;4979946;28;45381;-51
2021/12/26 08:50:10;;;;;;;;;17.75;14.25;;;;;11.47;71.86;99852.50;4979390;28;45961;-50
2021/12/26 08:52:36;;;;;;;;;18.00;17.50;;;;;11.47;72.07;99847.25;4979849;28;45400;-47
2021/12/26 08:55:03;;;;;;;;;18.75;17.50;;;;;11.51;72.00;99851.53;4979611;28;45449;-50
2021/12/26 08:57:29;;;;;;;;;19.00;17.50;;;;;11.53;71.98;99852.31;4979728;28;45434;-48
2021/12/26 08:59:54;;;;;;;;;16.75;14.50;;;;;11.54;71.99;99846.16;4979303;28;45271;-48
2021/12/26 09:02:19;;;;;;;;;22.00;20.75;;;;;11.58;71.89;99849.53;4979595;28;45232;-50
2021/12/26 09:04:45;;;;;;;;;17.00;14.75;;;;;11.60;72.05;99847.72;4979466;28;45200;-46
2021/12/26 09:07:11;;;;;;;;;22.50;19.75;;;;;11.61;71.92;99858.19;4962144;28;45401;-47
2021/12/26 09:09:37;;;;;;;;;18.50;18.00;;;;;11.60;71.96;99855.63;4961531;28;45352;-48
2021/12/26 09:12:03;;;;;;;;;26.50;26.25;;;;;11.63;72.07;99864.25;4982923;28;45347;-46
2021/12/26 09:14:29;;;;;;;;;20.25;18.50;;;;;11.64;72.12;99862.50;4965250;28;45338;-49
2021/12/26 09:16:57;;;;;;;;;32.00;28.50;;;;;11.66;72.19;99869.44;4982729;28;45550;-47
2021/12/26 09:19:23;;;;;;;;;22.25;19.00;;;;;11.68;72.08;99870.25;4964768;28;45583;-51
2021/12/26 09:21:49;;;;;;;;;26.50;21.50;;;;;11.69;72.08;99877.22;4982444;28;45185;-50
2021/12/26 09:24:14;;;;;;;;;22.25;17.00;;;;;11.69;71.98;99868.47;4965085;28;45297;-50
2021/12/26 09:26:40;;;;;;;;;17.75;16.25;;;;;11.70;72.31;99878.94;4965115;28;45350;-47
2021/12/26 09:29:05;;;;;;;;;18.00;18.00;;;;;11.69;72.19;99871.94;4982415;28;46278;-51
2021/12/26 09:31:30;;;;;;;;;18.50;15.00;;;;;11.73;72.30;99879.75;4966565;28;45365;-50
2021/12/26 09:33:56;;;;;;;;;21.00;16.50;;;;;11.74;72.37;99873.59;4979585;28;45268;-48
2021/12/26 09:36:21;;;;;;;;;16.75;14.25;;;;;11.77;72.33;99878.75;4958235;28;45373;-48
2021/12/26 09:38:47;;;;;;;;;13.25;13.25;;;;;11.78;72.30;99875.22;4980267;28;46353;-51
2021/12/26 09:41:12;;;;;;;;;17.00;14.00;;;;;11.78;72.24;99878.69;4982419;28;45327;-50
2021/12/26 09:43:38;;;;;;;;;19.00;15.75;;;;;11.82;72.58;99880.34;4982499;28;45304;-48
2021/12/26 09:46:04;;;;;;;;;12.25;10.75;;;;;11.85;72.19;99882.84;4982545;28;45352;-51
2021/12/26 09:48:29;;;;;;;;;18.00;16.50;;;;;11.88;72.13;99876.63;4981971;28;45335;-49
2021/12/26 09:50:54;;;;;;;;;15.25;14.25;;;;;11.90;72.08;99877.44;4964467;28;45342;-51
2021/12/26 09:53:20;;;;;;;;;16.00;15.25;;;;;11.91;72.21;99881.78;4982335;28;45243;-51
2021/12/26 09:55:46;;;;;;;;;21.50;18.00;;;;;11.95;72.16;99885.16;4982281;28;45310;-51
2021/12/26 09:58:11;;;;;;;;;21.00;15.75;;;;;11.97;71.95;99884.22;4964673;28;46116;-50
2021/12/26 10:00:40;;;;;;;;;14.25;14.25;;;;;11.97;72.46;99876.34;4982350;28;45263;-51
2021/12/26 10:03:17;;;;;;;;;16.25;15.25;;;;;11.99;72.28;99879.78;4982247;28;45318;-51
2021/12/26 10:06:09;;;;;;;;;15.75;14.00;;;;;11.99;72.08;99882.41;4981927;28;45391;-47
2021/12/26 10:08:50;;;;;;;;;15.75;12.00;;;;;12.01;72.24;99887.63;4981994;28;46023;-52
2021/12/26 10:11:18;;;;;;;;;18.25;17.25;;;;;12.01;72.16;99883.25;4981904;28;45173;-49
2021/12/26 10:13:56;;;;;;;;;20.25;17.50;;;;;12.03;72.26;99888.44;4982072;28;45234;-50
2021/12/26 10:16:25;;;;;;;;;20.75;17.25;;;;;12.02;72.25;99890.22;4981881;28;45512;-47
2021/12/26 10:18:52;;;;;;;;;19.50;16.50;;;;;11.98;72.42;99869.31;4981562;28;45482;-52
2021/12/26 10:21:27;;;;;;;;;17.00;15.75;;;;;11.98;72.48;99878.06;4980813;28;45624;-48
2021/12/26 10:23:55;;;;;;;;;21.00;16.75;;;;;11.99;72.26;99877.16;4981484;28;45490;-49
2021/12/26 10:26:23;;;;;;;;;17.00;16.50;;;;;12.01;72.36;99867.44;4964357;28;45536;-49
2021/12/26 10:29:10;;;;;;;;;18.50;15.25;;;;;12.03;72.30;99864.75;4981379;28;45354;-50
2021/12/26 10:31:40;;;;;;;;;17.50;14.75;;;;;12.02;72.33;99863.03;4963542;28;45270;-49
2021/12/26 10:34:06;;;;;;;;;22.00;20.50;;;;;12.01;72.52;99861.28;4980862;28;45335;-50
2021/12/26 10:36:31;;;;;;;;;17.50;15.75;;;;;12.04;72.55;99861.22;4973830;28;45291;-48
2021/12/26 10:39:12;;;;;;;;;17.75;13.50;;;;;12.03;72.58;99862.97;4963122;28;47055;-46
2021/12/26 10:41:51;;;;;;;;;20.75;17.50;;;;;12.04;72.83;99855.94;4963934;28;45425;-51
2021/12/26 10:44:28;;;;;;;;;22.00;21.00;;;;;12.08;72.53;99861.97;4981594;28;45343;-52
2021/12/26 10:46:58;;;;;;;;;17.75;16.00;;;;;12.09;72.55;99856.63;4981319;28;45391;-48
2021/12/26 10:49:32;;;;;;;;;24.00;18.25;;;;;12.08;72.34;99854.91;4981102;28;45473;-48
2021/12/26 10:52:00;;;;;;;;;20.25;17.75;;;;;12.08;72.39;99847.00;4963658;28;45293;-47
2021/12/26 10:54:31;;;;;;;;;22.00;21.75;;;;;12.10;72.61;99849.59;4981466;28;45456;-49
2021/12/26 10:57:36;;;;;;;;;25.00;20.00;;;;;12.07;72.86;99854.97;4964581;28;45450;-48
2021/12/26 11:00:13;;;;;;;;;21.00;16.75;;;;;12.07;72.56;99847.06;4901785;29;46074;-47
2021/12/26 11:02:43;;;;;;;;;23.75;19.75;;;;;12.05;73.05;99851.50;4973016;28;45232;-48
2021/12/26 11:05:15;;;;;;;;;19.75;18.50;;;;;12.05;72.84;99841.00;4981203;28;45542;-49
2021/12/26 11:07:47;;;;;;;;;20.75;17.75;;;;;12.03;72.99;99849.78;4981303;28;45622;-48
2021/12/26 11:10:17;;;;;;;;;20.00;13.50;;;;;12.02;72.89;99850.72;4980729;28;45577;-48
2021/12/26 11:12:46;;;;;;;;;21.75;19.75;;;;;12.03;72.86;99846.31;4980981;28;45401;-47
2021/12/26 11:15:14;;;;;;;;;15.50;13.50;;;;;12.03;72.77;99844.53;4981188;28;45282;-50
2021/12/26 11:17:46;;;;;;;;;16.75;14.75;;;;;12.00;72.75;99847.28;4980843;28;45497;-52